Airfield :
LOGIN :

Register | Disclaimer

   EN    FR    IT 

 










Legend :    VFR   Marginal VFR   IFR   Intensive IFR   Very Intensive IFR
Visi :
Ceiling :
>= 8 km
>= 3000ft
5 to 8 km
1000 to 3000 ft
1500m to 5 km
500 to 1000 ft
800 to 1500m
200 to 500 ft
< 800m
< 200 ft
Symbols :   Thunderstorms  Fog  Heavy snow  Heavy precipitations  Wind > 20 kt
SIGMETs :     Misc.  Thunderstorms  Icing  Turbulence  Mountain Waves  Volcanic Ashes






- Airport Elevation : 362 ft
- IATA code : WAW


EPWA - Warsaw Okecie

CURRENT METAR :
  • 080630Z 13003KT 9999 BKN033 M01/M03 Q1044 NOSIG

EXPIRED METARs :
  • 080600Z 15001KT 9999 BKN033 M02/M03 Q1044 NOSIG
  • 080530Z 15002KT 9999 BKN033 M02/M03 Q1044 NOSIG
  • 080500Z 00000KT 9999 BKN036 M02/M03 Q1044 NOSIG
  • 080430Z 29003KT 9999 BKN036 M02/M03 Q1044 NOSIG
  • 080400Z 29002KT 9999 BKN036 M02/M03 Q1044 NOSIG

TAF TAF EPWA
Valid from the 08 at 06:00 until the 09 at 06:00 UTC


080530Z 0806/0906 15004KT 9999 BKN035



MET'MAP, your aeronautical weather chart ! - Copyright ORBIFLY December 2007 - Disclaimer

ORBIFLY MET'MAP TEAM :

Programming & Development : Alexandra Zaïnal
Original concept : Baudouin d'Aumeries
Technical & hardware support : Manuel Goepfert
Assistance : Marc-Olivier Méhu




SOURCES & CREDITS :

   NOAA